KLLQ

Details ICAO KLLQ
Name MONTICELLO MUNI ELLIS FLD
Region United States
Timezone America/Chicago (UTC-5.0)
Plans Departing 2
Arriving 4
Stats Elevation 270 ft / 82 m (AMSL)
Location 33.638565° -91.751014°
Runways 1
Magnetic Variation 0.054° W
Sunrise 2018-05-20 11:04:27 UTC / 2018-05-20 06:04:27 Local
Sunset 2018-05-21 01:05:29 UTC / 2018-05-20 20:05:29 Local
Advertisement - Login to hide

Runways

ID Width Length Bearing (true) Bearing (mag) Surface Threshold Offset Overrun Length
03 75 ft / 23 m 5,026 ft / 1,532 m 31.59° 31.64° Asphalt 0 ft / 0 m 0 ft / 0 m
21 75 ft / 23 m 5,026 ft / 1,532 m 211.59° 211.64° Asphalt 0 ft / 0 m 0 ft / 0 m

Map

Weather


0- 5 10 15 20 25 30 35+ Temperature / ° C

Clouds and Precipitation
Forecast for 2018-05-20 18:00 UTC. Updated an hour ago

Ground ~20,000 ft ~40,000 ft Winds

METAR

KLLQ 201753Z AUTO 26003KT 10SM SCT041 31/21 A3005 RMK AO2 SLP173 T03110211 10317 20222 58008

TAF

TAF KLLQ 201734Z 2018/2118 19007KT P6SM SCT050 BKN150 FM210600 VRB04KT P6SM VCTS SCT050CB OVC100 FM211400 33005KT P6SM SCT250

Frequencies

Recorded 133.32 MHz ASOS
Unicom 122.80 MHz CTAF/UNICOM
Warning: Do not use this data for real-world aviation or navigation. No guarantee of current accuracy is given.